This is the latest recevied weather packets stored in our database for station/object AA0PB. If no packets are shown the sender has not sent any weather packets the latest 10 day(s).
| Time | Temp. | Humidity | Pressure | Rain* | Wind** | Luminosity | Snow |
|---|---|---|---|---|---|---|---|
| 1778196919 | 22.78° C | 46% | 1017.5 hPa | 0 mm | - | 474 W/m² | - |
| 1778196617 | 22.22° C | 46% | 1017.3 hPa | 0 mm | - | 197 W/m² | - |
| 1778196313 | 21.67° C | 48% | 1017.4 hPa | 0 mm | - | 321 W/m² | - |
| 1778196010 | 21.11° C | 50% | 1017.5 hPa | 0 mm | - | 329 W/m² | - |
| 1778195707 | 21.11° C | 49% | 1017.6 hPa | 0 mm | - | 362 W/m² | - |
| 1778195404 | 21.11° C | 50% | 1017.8 hPa | 0 mm | - | 292 W/m² | - |
| 1778195101 | 23.33° C | 46% | 1017.8 hPa | 0 mm | - | 219 W/m² | - |
| 1778194796 | 22.22° C | 48% | 1017.8 hPa | 0 mm | - | 556 W/m² | - |
| 1778194493 | 21.67° C | 52% | 1018 hPa | 0 mm | - | 422 W/m² | - |
| 1778194189 | 21.67° C | 49% | 1018 hPa | 0 mm | - | 563 W/m² | - |
| 1778193885 | 21.67° C | 47% | 1018 hPa | 0 mm | - | 567 W/m² | - |
| 1778193582 | 21.67° C | 47% | 1018.2 hPa | 0 mm | - | 572 W/m² | - |
| 1778193278 | 20.56° C | 50% | 1018.3 hPa | 0 mm | - | 584 W/m² | - |
| 1778192975 | 21.11° C | 51% | 1018.5 hPa | 0 mm | - | 591 W/m² | - |
| 1778192672 | 21.67° C | 49% | 1018.2 hPa | 0 mm | - | 599 W/m² | - |
| 1778192368 | 21.67° C | 47% | 1018.3 hPa | 0 mm | - | 606 W/m² | - |
| 1778192065 | 21.11° C | 47% | 1018.6 hPa | 0 mm | - | 618 W/m² | - |
| 1778191761 | 21.67° C | 50% | 1018.5 hPa | 0 mm | - | 630 W/m² | - |
| 1778191459 | 20° C | 51% | 1018.6 hPa | 0 mm | - | 637 W/m² | - |
| 1778191155 | 20° C | 49% | 1018.8 hPa | 0 mm | - | 632 W/m² | - |
| 1778190852 | 19.44° C | 53% | 1018.8 hPa | 0 mm | - | 661 W/m² | - |
| 1778190549 | 20.56° C | 49% | 1018.8 hPa | 0 mm | - | 626 W/m² | - |
| 1778190247 | 20.56° C | 48% | 1018.7 hPa | 0 mm | - | 635 W/m² | - |
| 1778189942 | 20° C | 49% | 1018.8 hPa | 0 mm | - | 324 W/m² | - |
| 1778189639 | 20° C | 51% | 1019.1 hPa | 0 mm | - | 433 W/m² | - |
* Rain latest hour (hover to see other rain measurements)
** Current wind speed in m/s (hover to see current wind gust speed)